Terminal Aerodrome Forecast
Issued by NWS

Home | Current Version | Previous Version | Text Only | Print | Product List | Glossary On
Versions: 1 2 3 4 5 6 7 8 9 10 11 12 13 14 15 16 17 18 19 20 21 22 23 24 25
000
FTUS41 KBUF 291455 AAA
TAFJHW
TAF AMD
KJHW 291455Z 2915/3012 20011KT P6SM BKN050
     FM291600 21015G25KT P6SM VCSH BKN050
     FM291900 23015G25KT P6SM VCTS BKN050CB
     FM292100 23013G22KT 6SM -SHRA VCTS OVC050CB
     FM300000 21008KT P6SM VCSH BKN050
      AMD LTD TO CLD VIS AND WIND=

USA.gov is the U.S. government's official web portal to all federal, state and local government web resources and services.